Map

Track Data

SID SEASON NUMBER BASIN SUBBASIN NAME ISO_TIME NATURE LAT LON WMO_WIND WMO_PRES WMO_AGENCY TRACK_TYPE DIST2LAND LANDFALL IFLAG USA_AGENCY USA_ATCF_ID USA_LAT USA_LON USA_RECORD USA_STATUS USA_WIND USA_PRES USA_SSHS USA_R34_NE USA_R34_SE USA_R34_SW USA_R34_NW USA_R50_NE USA_R50_SE USA_R50_SW USA_R50_NW USA_R64_NE USA_R64_SE USA_R64_SW USA_R64_NW USA_POCI USA_ROCI USA_RMW USA_EYE TOKYO_LAT TOKYO_LON TOKYO_GRADE TOKYO_WIND TOKYO_PRES TOKYO_R50_DIR TOKYO_R50_LONG TOKYO_R50_SHORT TOKYO_R30_DIR TOKYO_R30_LONG TOKYO_R30_SHORT TOKYO_LAND CMA_LAT CMA_LON CMA_CAT CMA_WIND CMA_PRES HKO_LAT HKO_LON HKO_CAT HKO_WIND HKO_PRES NEWDELHI_LAT NEWDELHI_LON NEWDELHI_GRADE NEWDELHI_WIND NEWDELHI_PRES NEWDELHI_CI NEWDELHI_DP NEWDELHI_POCI REUNION_LAT REUNION_LON REUNION_TYPE REUNION_WIND REUNION_PRES REUNION_TNUM REUNION_CI REUNION_RMW REUNION_R34_NE REUNION_R34_SE REUNION_R34_SW REUNION_R34_NW REUNION_R50_NE REUNION_R50_SE REUNION_R50_SW REUNION_R50_NW REUNION_R64_NE REUNION_R64_SE REUNION_R64_SW REUNION_R64_NW BOM_LAT BOM_LON BOM_TYPE BOM_WIND BOM_PRES BOM_TNUM BOM_CI BOM_RMW BOM_R34_NE BOM_R34_SE BOM_R34_SW BOM_R34_NW BOM_R50_NE BOM_R50_SE BOM_R50_SW BOM_R50_NW BOM_R64_NE BOM_R64_SE BOM_R64_SW BOM_R64_NW BOM_ROCI BOM_POCI BOM_EYE BOM_POS_METHOD BOM_PRES_METHOD NADI_LAT NADI_LON NADI_CAT NADI_WIND NADI_PRES WELLINGTON_LAT WELLINGTON_LON WELLINGTON_WIND WELLINGTON_PRES DS824_LAT DS824_LON DS824_STAGE DS824_WIND DS824_PRES TD9636_LAT TD9636_LON TD9636_STAGE TD9636_WIND TD9636_PRES TD9635_LAT TD9635_LON TD9635_WIND TD9635_PRES TD9635_ROCI NEUMANN_LAT NEUMANN_LON NEUMANN_CLASS NEUMANN_WIND NEUMANN_PRES MLC_LAT MLC_LON MLC_CLASS MLC_WIND MLC_PRES USA_GUST BOM_GUST BOM_GUST_PER REUNION_GUST REUNION_GUST_PER USA_SEAHGT USA_SEARAD_NE USA_SEARAD_SE USA_SEARAD_SW USA_SEARAD_NW STORM_SPEED STORM_DIR
1887274N12119 1887 54 WP MM NOT_NAMED 1887-09-30 16:00:00 NR 12.1000 118.500 main 140 140 __________O___ -1 12.1000 118.500 7 1 0
1887274N12119 1887 54 WP MM NOT_NAMED 1887-09-30 18:00:00 NR 12.1413 118.472 main 140 140 __________P___ -1 12.1413 118.472 7 2 324
1887274N12119 1887 54 WP MM NOT_NAMED 1887-09-30 21:00:00 NR 12.2065 118.416 main 156 156 __________P___ -1 12.2065 118.416 7 2 313
1887274N12119 1887 54 WP MM NOT_NAMED 1887-10-01 00:00:00 NR 12.2801 118.322 main 171 171 __________P___ -1 12.2801 118.322 7 3 304
1887274N12119 1887 54 WP MM NOT_NAMED 1887-10-01 03:00:00 NR 12.3671 118.168 main 187 187 __________P___ -1 12.3671 118.168 7 4 299
1887274N12119 1887 54 WP MM NOT_NAMED 1887-10-01 04:00:00 NR 12.4000 118.100 main 195 195 __________O___ -1 12.4000 118.100 7 5 295
1887274N12119 1887 54 WP MM NOT_NAMED 1887-10-01 06:00:00 NR 12.4720 117.935 main 218 218 __________P___ -1 12.4720 117.935 7 6 293
1887274N12119 1887 54 WP MM NOT_NAMED 1887-10-01 09:00:00 NR 12.5926 117.630 main 250 250 __________P___ -1 12.5926 117.630 7 7 291
1887274N12119 1887 54 WP MM NOT_NAMED 1887-10-01 12:00:00 NR 12.7226 117.282 main 283 283 __________P___ -1 12.7226 117.282 7 7 291
1887274N12119 1887 54 WP MM NOT_NAMED 1887-10-01 15:00:00 NR 12.8559 116.919 main 332 332 __________P___ -1 12.8559 116.919 7 8 291
1887274N12119 1887 54 WP MM NOT_NAMED 1887-10-01 16:00:00 NR 12.9000 116.800 main 341 341 __________O___ -1 12.9000 116.800 7 7 292
1887274N12119 1887 54 WP MM NOT_NAMED 1887-10-01 18:00:00 NR 12.9831 116.596 main 365 365 __________P___ -1 12.9831 116.596 7 6 293
1887274N12119 1887 54 WP MM NOT_NAMED 1887-10-01 21:00:00 NR 13.1079 116.291 main 398 398 __________P___ -1 13.1079 116.291 7 7 292
1887274N12119 1887 54 WP MM NOT_NAMED 1887-10-02 00:00:00 NR 13.2329 115.973 main 432 432 __________P___ -1 13.2329 115.973 7 7 291
1887274N12119 1887 54 WP MM NOT_NAMED 1887-10-02 03:00:00 NR 13.3582 115.625 main 480 480 __________P___ -1 13.3582 115.625 7 7 290
1887274N12119 1887 54 WP MM NOT_NAMED 1887-10-02 04:00:00 NR 13.4000 115.500 main 490 490 __________O___ -1 13.4000 115.500 3 8 290
1887274N12119 1887 54 WP MM NOT_NAMED 1887-10-02 06:00:00 NR 13.4965 115.223 main 524 524 __________P___ -1 13.4965 115.223 3 9 289
1887274N12119 1887 54 WP MM NOT_NAMED 1887-10-02 09:00:00 NR 13.6416 114.777 main 567 529 __________P___ -1 13.6416 114.777 3 9 287
1887274N12119 1887 54 WP MM NOT_NAMED 1887-10-02 12:00:00 NR 13.7730 114.312 main 529 478 __________P___ -1 13.7730 114.312 3 9 285
1887274N12119 1887 54 WP MM NOT_NAMED 1887-10-02 15:00:00 NR 13.8751 113.850 main 478 468 __________P___ -1 13.8751 113.850 3 9 282
1887274N12119 1887 54 WP MM NOT_NAMED 1887-10-02 16:00:00 NR 13.9000 113.700 main 468 447 __________O___ -1 13.9000 113.700 4 8 278
1887274N12119 1887 54 WP MM NOT_NAMED 1887-10-02 18:00:00 NR 13.9305 113.451 main 447 405 __________P___ -1 13.9305 113.451 4 7 274
1887274N12119 1887 54 WP MM NOT_NAMED 1887-10-02 21:00:00 NR 13.9451 113.090 main 405 363 __________P___ -1 13.9451 113.090 4 7 270
1887274N12119 1887 54 WP MM NOT_NAMED 1887-10-03 00:00:00 NR 13.9337 112.709 main 363 323 __________P___ -1 13.9337 112.709 4 8 267
1887274N12119 1887 54 WP MM NOT_NAMED 1887-10-03 03:00:00 NR 13.9090 112.268 main 323 302 __________P___ -1 13.9090 112.268 4 9 267
1887274N12119 1887 54 WP MM NOT_NAMED 1887-10-03 04:00:00 NR 13.9000 112.100 main 302 259 __________O___ -1 13.9000 112.100 4 11 265
1887274N12119 1887 54 WP MM NOT_NAMED 1887-10-03 06:00:00 NR 13.8658 111.704 main 259 183 __________P___ -1 13.8658 111.704 4 12 265
1887274N12119 1887 54 WP MM NOT_NAMED 1887-10-03 09:00:00 NR 13.8075 111.042 main 183 108 __________P___ -1 13.8075 111.042 4 13 266
1887274N12119 1887 54 WP MM NOT_NAMED 1887-10-03 12:00:00 NR 13.7683 110.335 main 108 32 __________P___ -1 13.7683 110.335 4 14 269
1887274N12119 1887 54 WP MM NOT_NAMED 1887-10-03 15:00:00 NR 13.7795 109.628 main 32 10 __________P___ -1 13.7795 109.628 4 14 272
1887274N12119 1887 54 WP MM NOT_NAMED 1887-10-03 16:00:00 NR 13.8000 109.400 main 10 0 __________O___ -1 13.8000 109.400 4 13 278
1887274N12119 1887 54 WP MM NOT_NAMED 1887-10-03 18:00:00 NR 13.8704 108.962 main 0 0 __________P___ -1 13.8704 108.962 4 13 283
1887274N12119 1887 54 WP MM NOT_NAMED 1887-10-03 21:00:00 NR 14.0385 108.343 main 0 0 __________P___ -1 14.0385 108.343 4 12 288
1887274N12119 1887 54 WP MM NOT_NAMED 1887-10-04 00:00:00 NR 14.2606 107.756 main 0 0 __________P___ -1 14.2606 107.756 4 12 293
1887274N12119 1887 54 WP MM NOT_NAMED 1887-10-04 03:00:00 NR 14.5132 107.188 main 0 0 __________P___ -1 14.5132 107.188 4 12 295
1887274N12119 1887 54 WP MM NOT_NAMED 1887-10-04 04:00:00 NR 14.6000 107.000 main 0 __________O___ -1 14.6000 107.000 7 12 295

Digital Typhoon Data and Search

About IBTrACS Database

This database is a web-friendly format of International Best Track Archive for Climate Stewardship (IBTrACS), a global best track data archive curated by NOAA dating back to 1842.

Updated: 2021-12-03